Time;durP1;ratioP1;P1;durP2;ratioP2;P2;SDS_P1;SDS_P2;PMS_P1;PMS_P2;Temp;Humidity;BMP_temperature;BMP_pressure;BME280_temperature;BME280_humidity;BME280_pressure;Samples;Min_cycle;Max_cycle;Signal;HPM_P1;HPM_P2
2022/04/21 00:02:28;;;;;;;99.23;54.50;;;5.60;99.90;;;;;;10581027;28;20513;-83
2022/04/21 00:07:29;;;;;;;87.33;46.87;;;5.60;99.90;;;;;;10580453;28;20160;-83
2022/04/21 00:12:30;;;;;;;84.13;45.37;;;5.60;99.90;;;;;;10579704;27;20035;-82
2022/04/21 00:17:31;;;;;;;92.63;48.20;;;5.50;99.90;;;;;;10580310;27;20027;-83
2022/04/21 00:27:51;;;;;;;81.40;45.03;;;5.50;99.90;;;;;;10579699;28;20027;-82
2022/04/21 00:32:52;;;;;;;96.60;52.33;;;5.50;99.90;;;;;;10580603;28;20579;-82
2022/04/21 00:37:56;;;;;;;104.47;57.17;;;5.50;99.90;;;;;;10579219;28;20048;-83
2022/04/21 00:42:57;;;;;;;94.80;52.80;;;5.50;99.90;;;;;;10579359;28;20039;-83
2022/04/21 00:48:00;;;;;;;95.00;53.20;;;5.50;99.90;;;;;;10578722;28;20031;-84
2022/04/21 00:53:02;;;;;;;100.43;57.10;;;5.40;99.90;;;;;;10578732;28;20046;-83
2022/04/21 00:58:04;;;;;;;85.13;47.53;;;5.40;99.90;;;;;;10578255;27;20031;-83
2022/04/21 01:03:06;;;;;;;85.23;47.13;;;5.40;99.90;;;;;;10553224;28;20087;-83
2022/04/21 01:08:08;;;;;;;90.60;48.77;;;5.40;99.90;;;;;;10535956;28;20027;-83
2022/04/21 01:13:12;;;;;;;91.57;49.87;;;5.40;99.90;;;;;;10549727;28;20039;-84
2022/04/21 01:18:12;;;;;;;82.40;45.53;;;5.30;99.90;;;;;;10578334;28;20032;-83
2022/04/21 01:23:13;;;;;;;88.33;48.73;;;5.30;99.90;;;;;;10576879;28;20107;-83
2022/04/21 01:28:14;;;;;;;97.30;51.53;;;5.30;99.90;;;;;;10567338;28;20552;-84
2022/04/21 01:33:14;;;;;;;98.43;52.10;;;5.30;99.90;;;;;;10541950;28;20028;-84
2022/04/21 01:43:34;;;;;;;90.93;51.73;;;5.20;99.90;;;;;;10577233;28;20047;-82
2022/04/21 01:48:35;;;;;;;83.97;48.10;;;5.20;99.90;;;;;;10577059;28;20467;-83
2022/04/21 01:53:36;;;;;;;86.97;48.87;;;5.20;99.90;;;;;;10576386;28;20035;-82
2022/04/21 01:58:36;;;;;;;86.00;50.87;;;5.20;99.90;;;;;;10575893;28;20034;-82
2022/04/21 02:03:37;;;;;;;75.93;45.17;;;5.20;99.90;;;;;;10576413;28;20023;-83
2022/04/21 02:08:37;;;;;;;91.50;54.90;;;5.20;99.90;;;;;;10574546;28;20085;-82
2022/04/21 02:13:38;;;;;;;89.33;52.73;;;5.20;99.90;;;;;;10575479;28;20028;-83
2022/04/21 02:18:39;;;;;;;91.90;50.27;;;5.20;99.90;;;;;;10575294;28;20046;-82
2022/04/21 02:23:39;;;;;;;84.47;48.70;;;5.10;99.90;;;;;;10575427;28;20455;-81
2022/04/21 02:28:40;;;;;;;89.27;50.47;;;5.10;99.90;;;;;;10575193;28;20031;-82
2022/04/21 02:33:41;;;;;;;91.47;50.87;;;5.10;99.90;;;;;;10574826;28;20034;-83
2022/04/21 02:38:41;;;;;;;88.33;53.10;;;5.00;99.90;;;;;;10557184;28;20079;-83
2022/04/21 02:43:42;;;;;;;98.07;56.77;;;5.00;99.90;;;;;;10549873;28;20028;-82
2022/04/21 02:48:43;;;;;;;103.57;57.87;;;5.00;99.90;;;;;;10570239;28;20031;-82
2022/04/21 02:59:02;;;;;;;105.90;58.00;;;5.00;99.90;;;;;;10535985;28;20036;-82
2022/04/21 03:04:03;;;;;;;95.07;52.93;;;4.90;99.90;;;;;;10560910;28;20035;-82
2022/04/21 03:09:04;;;;;;;108.00;55.10;;;4.90;99.90;;;;;;10532352;28;20464;-84
2022/04/21 03:14:04;;;;;;;97.97;52.67;;;4.90;99.90;;;;;;10531962;28;20021;-83
2022/04/21 03:19:05;;;;;;;104.13;56.57;;;4.90;99.90;;;;;;10564073;28;20027;-83
2022/04/21 03:24:21;;;;;;;102.70;56.93;;;4.80;99.90;;;;;;10572502;28;20047;-83
2022/04/21 03:29:21;;;;;;;111.60;62.45;;;4.80;99.90;;;;;;10574401;28;20084;-83
2022/04/21 03:34:22;;;;;;;103.90;57.73;;;4.80;99.90;;;;;;10573777;28;20027;-83
2022/04/21 03:39:23;;;;;;;106.73;57.87;;;4.80;99.90;;;;;;10573470;28;20104;-83
2022/04/21 03:44:24;;;;;;;120.43;68.37;;;4.80;99.90;;;;;;10574349;28;20039;-84
2022/04/21 03:49:29;;;;;;;129.03;73.67;;;4.80;99.90;;;;;;10578320;28;20080;-83
2022/04/21 03:54:29;;;;;;;140.10;76.27;;;4.80;99.90;;;;;;10581790;28;20091;-83
2022/04/21 03:59:30;;;;;;;136.43;75.73;;;4.80;99.90;;;;;;10560986;28;20121;-82
2022/04/21 04:04:33;;;;;;;125.83;76.10;;;4.80;99.90;;;;;;10539166;28;20035;-83
2022/04/21 04:14:54;;;;;;;135.60;77.93;;;4.90;99.90;;;;;;10580315;28;20035;-83
2022/04/21 04:19:54;;;;;;;143.60;80.90;;;4.90;99.90;;;;;;10580779;28;20042;-84
2022/04/21 04:24:56;;;;;;;143.53;82.27;;;5.00;99.90;;;;;;10579682;28;20031;-82
2022/04/21 04:29:56;;;;;;;144.77;81.77;;;5.10;99.90;;;;;;10579795;28;20383;-83
2022/04/21 04:34:57;;;;;;;145.57;81.73;;;5.10;99.90;;;;;;10555849;28;20035;-84
2022/04/21 04:39:59;;;;;;;138.90;77.60;;;5.20;99.90;;;;;;10563760;28;20048;-82
2022/04/21 04:50:19;;;;;;;134.17;78.80;;;5.30;99.90;;;;;;10562845;28;20494;-83
2022/04/21 04:55:20;;;;;;;156.33;91.57;;;5.40;99.90;;;;;;10555060;28;20032;-83
2022/04/21 05:00:20;;;;;;;158.13;94.80;;;5.50;99.90;;;;;;10554055;28;20043;-83
2022/04/21 05:05:21;;;;;;;137.27;78.30;;;5.70;99.90;;;;;;10571317;28;20024;-83
2022/04/21 05:10:23;;;;;;;124.47;70.53;;;5.80;99.90;;;;;;10564740;28;20780;-83
2022/04/21 05:15:24;;;;;;;119.63;70.13;;;5.90;99.90;;;;;;10574674;28;20080;-83
2022/04/21 05:20:26;;;;;;;100.10;58.47;;;6.00;99.90;;;;;;10574463;28;20080;-82
2022/04/21 05:25:31;;;;;;;77.10;46.93;;;6.20;99.90;;;;;;10576232;28;20058;-83
2022/04/21 05:35:52;;;;;;;71.57;41.43;;;6.40;99.90;;;;;;10576590;28;20040;-83
2022/04/21 05:40:53;;;;;;;75.90;44.27;;;6.50;99.90;;;;;;10576771;28;20056;-83
2022/04/21 05:45:54;;;;;;;69.50;42.47;;;6.70;99.90;;;;;;10575053;28;20102;-82
2022/04/21 05:50:55;;;;;;;50.27;31.97;;;6.90;99.90;;;;;;10575294;28;20024;-82
2022/04/21 05:55:56;;;;;;;75.30;45.47;;;7.10;99.90;;;;;;10576217;28;20023;-82
2022/04/21 06:00:59;;;;;;;72.90;41.50;;;7.30;99.90;;;;;;10576254;28;20445;-82
2022/04/21 06:05:59;;;;;;;74.13;44.10;;;7.40;99.90;;;;;;10576051;28;20114;-82
2022/04/21 06:11:00;;;;;;;64.83;39.10;;;7.50;99.90;;;;;;10575161;28;20110;-82
2022/04/21 06:16:01;;;;;;;51.07;32.13;;;7.70;99.90;;;;;;10575740;28;20035;-82
2022/04/21 06:21:02;;;;;;;42.03;27.73;;;7.70;99.90;;;;;;10575366;28;20496;-83
2022/04/21 06:26:04;;;;;;;46.37;29.03;;;7.90;99.90;;;;;;10575544;28;20027;-82
2022/04/21 06:31:05;;;;;;;41.37;26.73;;;8.00;99.90;;;;;;10575801;28;20031;-82
2022/04/21 06:36:07;;;;;;;38.60;23.57;;;8.20;99.90;;;;;;10574706;28;20024;-82
2022/04/21 06:41:08;;;;;;;36.70;22.33;;;8.30;99.90;;;;;;10575362;28;20111;-81
2022/04/21 06:51:27;;;;;;;48.07;30.67;;;8.60;99.90;;;;;;10574859;28;20039;-83
2022/04/21 06:56:28;;;;;;;42.00;25.80;;;8.80;99.90;;;;;;10575275;28;20027;-82
2022/04/21 07:01:29;;;;;;;42.40;26.40;;;9.00;99.90;;;;;;10545271;28;20437;-82
2022/04/21 07:06:29;;;;;;;47.47;28.33;;;9.20;99.90;;;;;;10574582;28;20118;-82
2022/04/21 07:11:30;;;;;;;41.70;26.17;;;9.50;99.90;;;;;;10574391;28;20660;-82
2022/04/21 07:16:32;;;;;;;40.90;27.20;;;9.80;99.90;;;;;;10574863;28;20047;-83
2022/04/21 07:21:33;;;;;;;41.13;24.63;;;9.90;99.90;;;;;;10576045;28;20043;-82
2022/04/21 07:26:33;;;;;;;37.90;24.83;;;10.20;99.90;;;;;;10583422;28;20039;-82
2022/04/21 07:31:35;;;;;;;32.47;21.48;;;10.50;99.90;;;;;;10583023;28;20387;-83
2022/04/21 07:36:35;;;;;;;34.80;22.20;;;10.70;99.90;;;;;;10581748;28;20019;-82
2022/04/21 07:41:37;;;;;;;30.70;20.70;;;10.70;98.20;;;;;;10582139;28;20138;-82
2022/04/21 07:46:37;;;;;;;29.87;19.50;;;10.60;96.10;;;;;;10581686;28;20016;-82
2022/04/21 07:51:38;;;;;;;33.72;22.48;;;10.80;97.60;;;;;;10581622;28;20475;-83
2022/04/21 07:56:39;;;;;;;28.83;19.55;;;11.00;95.90;;;;;;10581101;28;20027;-82
2022/04/21 08:01:39;;;;;;;26.95;18.90;;;11.10;94.20;;;;;;10581386;28;20031;-82
2022/04/21 08:06:41;;;;;;;40.25;31.17;;;11.20;94.90;;;;;;10581310;28;20103;-82
2022/04/21 08:11:42;;;;;;;29.65;21.52;;;11.40;93.40;;;;;;10580336;28;20028;-82
2022/04/21 08:16:43;;;;;;;30.83;20.83;;;11.30;92.10;;;;;;10581242;28;20023;-82
2022/04/21 08:21:44;;;;;;;25.52;18.65;;;11.30;92.90;;;;;;10580064;28;20050;-82
2022/04/21 08:37:23;;;;;;;26.10;18.05;;;11.50;91.70;;;;;;10579337;28;20032;-82
2022/04/21 08:42:29;;;;;;;29.77;20.73;;;11.40;92.10;;;;;;10580345;28;20032;-82
2022/04/21 08:47:31;;;;;;;29.45;19.73;;;11.60;91.80;;;;;;10579182;28;20042;-83
2022/04/21 08:52:34;;;;;;;26.50;18.38;;;11.80;91.80;;;;;;10579338;28;20032;-82
2022/04/21 08:57:38;;;;;;;27.65;18.95;;;11.80;90.30;;;;;;10579364;28;20027;-82
2022/04/21 09:02:41;;;;;;;30.25;19.55;;;11.60;90.70;;;;;;10577512;28;20039;-82
2022/04/21 09:07:47;;;;;;;25.50;18.58;;;11.90;91.30;;;;;;10578105;28;20024;-83
2022/04/21 09:12:55;;;;;;;28.30;19.13;;;12.10;90.60;;;;;;10579361;28;20509;-82
2022/04/21 09:18:22;;;;;;;31.63;22.33;;;12.20;90.30;;;;;;10578288;28;20031;-81
2022/04/21 09:23:32;;;;;;;31.05;21.65;;;12.20;87.00;;;;;;10573717;28;20052;-81
2022/04/21 09:28:33;;;;;;;29.27;20.08;;;12.10;87.90;;;;;;10577380;28;20071;-82
2022/04/21 09:33:44;;;;;;;33.35;23.58;;;12.10;87.30;;;;;;10577364;28;20729;-82
2022/04/21 09:39:01;;;;;;;33.42;23.52;;;12.30;87.70;;;;;;10575559;28;20066;-82
2022/04/21 09:49:41;;;;;;;31.02;22.05;;;13.00;83.80;;;;;;10576590;28;20041;-82
2022/04/21 09:54:45;;;;;;;29.88;19.75;;;12.80;84.10;;;;;;10576989;28;20605;-83
2022/04/21 09:59:46;;;;;;;21.23;15.70;;;12.70;84.60;;;;;;10576583;28;20638;-82
2022/04/21 10:04:47;;;;;;;26.83;17.98;;;12.80;82.80;;;;;;10576507;28;20028;-82
2022/04/21 10:09:49;;;;;;;25.15;16.40;;;12.50;80.40;;;;;;10576327;28;20443;-82
2022/04/21 10:14:51;;;;;;;23.10;16.50;;;12.30;82.60;;;;;;10575732;28;20050;-82
2022/04/21 10:19:52;;;;;;;27.73;16.33;;;12.20;80.50;;;;;;10575702;28;20050;-82
2022/04/21 10:24:57;;;;;;;25.15;16.30;;;11.80;82.10;;;;;;10575258;28;20019;-84
2022/04/21 10:29:58;;;;;;;19.58;13.85;;;11.70;83.90;;;;;;10576187;28;20038;-82
2022/04/21 10:34:59;;;;;;;18.00;11.32;;;11.70;82.80;;;;;;10575248;28;20024;-82
2022/04/21 10:40:04;;;;;;;14.00;10.60;;;11.60;81.20;;;;;;10575144;28;20051;-82
2022/04/21 10:45:13;;;;;;;17.23;10.82;;;11.40;82.00;;;;;;10575606;28;20053;-82
2022/04/21 10:50:19;;;;;;;12.90;8.80;;;11.50;81.00;;;;;;10574966;28;20024;-82
2022/04/21 11:00:40;;;;;;;10.98;7.93;;;11.70;81.00;;;;;;10583220;28;20522;-82
2022/04/21 11:05:40;;;;;;;10.77;7.07;;;11.90;80.90;;;;;;10583806;28;20063;-81
2022/04/21 11:10:43;;;;;;;9.25;6.75;;;12.20;79.70;;;;;;10583104;28;20026;-83
2022/04/21 11:15:44;;;;;;;10.68;7.70;;;12.30;77.70;;;;;;10583299;28;20441;-81
2022/04/21 11:20:50;;;;;;;10.25;7.40;;;12.30;79.50;;;;;;10583139;28;20088;-82
2022/04/21 11:25:52;;;;;;;9.93;7.07;;;12.30;78.00;;;;;;10582253;28;20102;-83
2022/04/21 11:30:59;;;;;;;12.75;8.15;;;12.70;78.70;;;;;;10582577;28;20016;-82
2022/04/21 11:36:11;;;;;;;11.70;7.82;;;12.80;78.90;;;;;;10581839;28;20024;-82
2022/04/21 11:41:13;;;;;;;12.38;8.52;;;13.00;79.50;;;;;;10581705;28;20059;-83
2022/04/21 11:46:14;;;;;;;11.63;8.05;;;13.10;78.50;;;;;;10580306;28;20030;-83
2022/04/21 11:51:30;;;;;;;12.52;8.60;;;13.10;77.20;;;;;;10581637;28;20430;-83
2022/04/21 11:56:31;;;;;;;26.63;16.23;;;12.90;77.30;;;;;;10581857;28;20474;-83
2022/04/21 12:06:52;;;;;;;13.30;9.40;;;13.00;78.30;;;;;;10579897;28;20391;-82
2022/04/21 12:11:55;;;;;;;14.50;10.60;;;13.10;76.30;;;;;;10580873;28;20524;-83
2022/04/21 12:16:57;;;;;;;15.00;9.30;;;13.10;77.20;;;;;;10580971;28;20027;-83
2022/04/21 12:22:03;;;;;;;14.32;10.43;;;13.20;75.00;;;;;;10579946;28;20768;-82
2022/04/21 12:27:12;;;;;;;14.68;10.25;;;13.30;78.50;;;;;;10580538;28;20019;-82
2022/04/21 12:32:17;;;;;;;13.77;10.43;;;13.50;79.00;;;;;;10579662;28;20024;-82
2022/04/21 12:37:28;;;;;;;16.80;11.13;;;13.80;78.30;;;;;;10561399;28;20058;-82
2022/04/21 12:42:29;;;;;;;17.00;12.00;;;13.90;76.70;;;;;;10579049;28;20039;-83
2022/04/21 12:47:29;;;;;;;14.77;11.82;;;13.50;75.10;;;;;;10579253;28;20030;-84
2022/04/21 12:52:34;;;;;;;18.75;11.15;;;13.20;75.80;;;;;;10579684;28;20106;-82
2022/04/21 12:57:36;;;;;;;18.57;11.83;;;12.80;76.30;;;;;;10560302;28;20020;-83
2022/04/21 13:02:37;;;;;;;19.10;11.68;;;12.60;77.90;;;;;;10579094;28;20281;-83
2022/04/21 13:07:38;;;;;;;18.20;11.98;;;12.50;78.40;;;;;;10578226;28;20024;-83
2022/04/21 13:12:38;;;;;;;18.15;12.45;;;12.40;79.10;;;;;;10578561;28;20022;-82
2022/04/21 13:17:42;;;;;;;16.60;11.35;;;12.40;79.30;;;;;;10578047;28;20027;-82
2022/04/21 13:22:43;;;;;;;17.75;11.07;;;12.30;78.90;;;;;;10577340;28;20442;-83
2022/04/21 13:27:43;;;;;;;19.52;12.18;;;12.20;79.00;;;;;;10577865;28;20050;-82
2022/04/21 13:38:03;;;;;;;15.85;11.23;;;12.00;79.00;;;;;;10577325;28;20491;-82
2022/04/21 13:43:04;;;;;;;16.90;11.25;;;11.90;79.10;;;;;;10576553;28;20043;-82
2022/04/21 13:48:07;;;;;;;15.32;10.13;;;11.80;79.40;;;;;;10564717;28;20047;-82
2022/04/21 13:53:08;;;;;;;17.55;11.55;;;11.90;80.00;;;;;;10565299;27;20053;-83
2022/04/21 13:58:09;;;;;;;15.18;11.07;;;11.80;80.20;;;;;;10568202;27;20020;-84
2022/04/21 14:03:10;;;;;;;13.80;9.77;;;11.90;80.90;;;;;;10559108;27;20428;-83
2022/04/21 14:08:11;;;;;;;15.27;10.68;;;11.90;81.00;;;;;;10581337;27;20031;-83
2022/04/21 14:13:11;;;;;;;16.33;9.68;;;11.80;80.50;;;;;;10578595;27;20417;-84
2022/04/21 14:18:12;;;;;;;15.48;10.13;;;11.70;81.20;;;;;;10568543;27;20032;-84
2022/04/21 14:23:16;;;;;;;15.65;10.75;;;11.70;80.80;;;;;;10567513;28;20028;-83
2022/04/21 14:28:17;;;;;;;14.73;9.80;;;11.60;81.30;;;;;;10555751;28;20104;-83
2022/04/21 14:33:17;;;;;;;17.17;10.23;;;11.60;81.00;;;;;;10571759;28;20032;-84
2022/04/21 14:48:57;;;;;;;18.35;12.55;;;11.40;81.00;;;;;;10580044;28;20664;-84
2022/04/21 14:53:57;;;;;;;16.85;11.18;;;11.40;81.60;;;;;;10582690;28;20028;-83
2022/04/21 14:58:58;;;;;;;16.42;10.65;;;11.30;81.70;;;;;;10536114;28;20115;-83
2022/04/21 15:03:59;;;;;;;16.08;10.52;;;11.30;81.90;;;;;;10568654;28;20509;-83
2022/04/21 15:09:00;;;;;;;15.50;9.18;;;11.40;82.40;;;;;;10556559;28;20070;-84
2022/04/21 15:14:01;;;;;;;17.33;10.52;;;11.30;81.70;;;;;;10558382;28;20051;-84
2022/04/21 15:19:01;;;;;;;15.73;10.45;;;11.30;82.10;;;;;;10549931;28;20062;-84
2022/04/21 15:24:03;;;;;;;18.08;11.73;;;11.20;82.50;;;;;;10571844;28;20055;-83
2022/04/21 15:29:04;;;;;;;18.35;11.93;;;11.10;83.70;;;;;;10539517;28;20080;-83
2022/04/21 15:34:05;;;;;;;18.27;11.57;;;10.90;84.40;;;;;;10557378;28;20028;-83
2022/04/21 15:39:07;;;;;;;18.90;12.52;;;10.80;86.50;;;;;;10572132;28;20048;-83
2022/04/21 15:44:08;;;;;;;16.92;11.98;;;10.70;88.30;;;;;;10542025;28;20031;-84
2022/04/21 15:49:09;;;;;;;19.13;12.65;;;10.50;90.30;;;;;;10562877;28;20013;-84
2022/04/21 15:59:39;;;;;;;19.83;11.60;;;10.30;93.80;;;;;;10512687;28;20450;-83
2022/04/21 16:04:40;;;;;;;20.73;13.63;;;10.30;95.00;;;;;;10571200;27;20041;-83
2022/04/21 16:09:43;;;;;;;21.77;13.40;;;10.30;99.90;;;;;;10589479;27;20030;-84
2022/04/21 16:14:44;;;;;;;21.80;13.47;;;10.30;99.90;;;;;;10547672;27;20122;-83
2022/04/21 16:19:44;;;;;;;20.38;13.18;;;10.40;99.90;;;;;;10567451;28;20075;-83
2022/04/21 16:24:45;;;;;;;22.33;14.38;;;10.40;99.90;;;;;;10572440;27;20106;-83
2022/04/21 16:29:47;;;;;;;19.45;13.63;;;10.40;99.90;;;;;;10574637;27;20640;-83
2022/04/21 16:34:47;;;;;;;23.45;14.23;;;10.30;99.90;;;;;;10578852;28;20028;-83
2022/04/21 16:39:48;;;;;;;26.90;13.83;;;10.30;99.90;;;;;;10578381;28;20059;-83
2022/04/21 16:44:49;;;;;;;24.83;16.33;;;10.40;99.90;;;;;;10577948;28;20088;-84
2022/04/21 16:49:49;;;;;;;29.95;17.10;;;10.30;99.90;;;;;;10578724;28;20471;-83
2022/04/21 16:54:50;;;;;;;32.33;19.00;;;10.30;99.90;;;;;;10565843;27;21444;-83
2022/04/21 16:59:51;;;;;;;30.20;18.30;;;10.30;99.90;;;;;;10559389;28;20128;-83
2022/04/21 17:04:51;;;;;;;25.43;16.33;;;10.20;99.90;;;;;;10553835;27;20032;-83
2022/04/21 17:09:52;;;;;;;24.07;15.07;;;10.20;99.90;;;;;;10567154;27;20028;-83
2022/04/21 17:14:53;;;;;;;23.10;15.33;;;10.10;99.90;;;;;;10575856;28;20054;-83
2022/04/21 17:19:53;;;;;;;21.50;13.80;;;10.00;99.90;;;;;;10570925;28;20112;-83
2022/04/21 17:24:54;;;;;;;22.13;14.30;;;9.90;99.90;;;;;;10576888;28;20370;-84
2022/04/21 17:29:55;;;;;;;23.43;15.83;;;9.80;99.90;;;;;;10571072;27;20076;-83
2022/04/21 17:34:56;;;;;;;23.80;16.37;;;9.80;99.90;;;;;;10564410;27;20130;-83
2022/04/21 17:39:58;;;;;;;29.50;15.90;;;9.70;99.90;;;;;;10567701;28;20058;-84
2022/04/21 17:44:59;;;;;;;27.73;17.03;;;9.60;99.90;;;;;;10553788;28;20036;-83
2022/04/21 17:49:59;;;;;;;26.97;17.27;;;9.70;99.90;;;;;;10569650;27;20030;-84
2022/04/21 17:55:00;;;;;;;26.83;17.17;;;9.60;99.90;;;;;;10576581;28;20028;-84
2022/04/21 18:00:01;;;;;;;28.90;17.33;;;9.50;99.90;;;;;;10576331;28;20035;-83
2022/04/21 18:05:02;;;;;;;32.43;19.50;;;9.50;99.90;;;;;;10569341;28;20062;-83
2022/04/21 18:10:03;;;;;;;29.80;18.57;;;9.40;99.90;;;;;;10573763;28;20111;-83
2022/04/21 18:15:04;;;;;;;30.57;18.93;;;9.40;99.90;;;;;;10571066;27;20036;-83
2022/04/21 18:20:05;;;;;;;33.20;21.63;;;9.40;99.90;;;;;;10573543;28;20122;-83
2022/04/21 18:25:07;;;;;;;35.40;21.30;;;9.40;99.90;;;;;;10533855;28;20035;-83
2022/04/21 18:30:07;;;;;;;31.57;21.27;;;9.30;99.90;;;;;;10533436;28;20104;-83
2022/04/21 18:35:09;;;;;;;42.27;23.90;;;9.30;99.90;;;;;;10533409;28;20111;-83
2022/04/21 18:40:10;;;;;;;42.67;24.47;;;9.20;99.90;;;;;;10551601;27;20075;-83
2022/04/21 18:45:11;;;;;;;45.67;27.23;;;9.20;99.90;;;;;;10561702;28;20028;-83
2022/04/21 18:50:12;;;;;;;45.00;26.13;;;9.20;99.90;;;;;;10563734;28;20106;-84
2022/04/21 18:55:13;;;;;;;51.13;29.83;;;9.20;99.90;;;;;;10570081;28;20426;-85
2022/04/21 19:00:15;;;;;;;46.93;26.13;;;9.10;99.90;;;;;;10574056;28;20035;-83
2022/04/21 19:05:17;;;;;;;49.73;29.03;;;9.10;99.90;;;;;;10574133;28;20019;-83
2022/04/21 19:10:18;;;;;;;49.00;28.47;;;9.10;99.90;;;;;;10555820;28;20051;-83
2022/04/21 19:15:18;;;;;;;44.13;26.50;;;9.10;99.90;;;;;;10571268;28;20114;-83
2022/04/21 19:20:20;;;;;;;57.10;30.57;;;9.00;99.90;;;;;;10582507;28;20028;-85
2022/04/21 19:25:24;;;;;;;55.23;30.60;;;8.90;99.90;;;;;;10582757;28;20027;-83
2022/04/21 19:30:25;;;;;;;58.27;31.37;;;9.00;99.90;;;;;;10576465;27;20071;-83
2022/04/21 19:35:26;;;;;;;56.80;31.13;;;8.80;99.90;;;;;;10563565;27;20036;-84
2022/04/21 19:40:27;;;;;;;52.57;30.27;;;8.70;99.90;;;;;;10565803;27;20060;-85
2022/04/21 19:45:30;;;;;;;60.30;33.83;;;8.70;99.90;;;;;;10574475;27;20487;-83
2022/04/21 19:50:32;;;;;;;69.87;34.93;;;8.60;99.90;;;;;;10576457;27;20104;-84
2022/04/21 19:55:33;;;;;;;67.63;36.87;;;8.60;99.90;;;;;;10554369;28;20028;-84
2022/04/21 20:00:34;;;;;;;66.80;35.70;;;8.70;99.90;;;;;;10568790;27;20039;-83
2022/04/21 20:10:55;;;;;;;67.37;35.50;;;8.60;99.90;;;;;;10576115;27;20031;-84
2022/04/21 20:15:55;;;;;;;60.93;33.20;;;8.60;99.90;;;;;;10565212;27;20059;-84
2022/04/21 20:31:35;;;;;;;83.53;42.57;;;8.40;99.90;;;;;;10578195;27;20036;-83
2022/04/21 20:36:36;;;;;;;90.03;45.53;;;8.30;99.90;;;;;;10557143;28;20043;-84
2022/04/21 20:41:37;;;;;;;93.03;45.33;;;8.20;99.90;;;;;;10567215;28;21023;-83
2022/04/21 20:46:37;;;;;;;84.20;44.23;;;8.20;99.90;;;;;;10574422;28;20111;-83
2022/04/21 20:51:38;;;;;;;92.20;46.37;;;8.30;99.90;;;;;;10574693;28;20474;-83
2022/04/21 20:56:39;;;;;;;89.07;45.30;;;8.30;99.90;;;;;;10554834;27;20030;-83
2022/04/21 21:01:40;;;;;;;81.73;40.57;;;8.30;99.90;;;;;;10589819;27;20508;-83
2022/04/21 21:11:59;;;;;;;74.43;41.20;;;8.30;99.90;;;;;;10586523;27;20493;-83
2022/04/21 21:17:00;;;;;;;73.47;40.37;;;8.30;99.90;;;;;;10592861;27;20047;-83
2022/04/21 21:22:05;;;;;;;78.27;40.87;;;8.20;99.90;;;;;;10566402;27;20039;-84
2022/04/21 21:27:07;;;;;;;79.20;41.28;;;8.20;99.90;;;;;;10590125;27;20397;-83
2022/04/21 21:32:08;;;;;;;88.87;46.90;;;8.10;99.90;;;;;;10583036;27;20027;-82
2022/04/21 21:37:09;;;;;;;86.80;46.63;;;8.10;99.90;;;;;;10588943;27;20022;-83
2022/04/21 21:42:09;;;;;;;96.43;48.60;;;8.10;99.90;;;;;;10543680;28;20043;-83
2022/04/21 21:47:10;;;;;;;90.63;48.37;;;8.10;99.90;;;;;;10586270;27;20099;-85
2022/04/21 21:57:30;;;;;;;89.60;47.73;;;8.10;99.90;;;;;;10586329;27;20098;-83
2022/04/21 22:02:31;;;;;;;75.17;37.23;;;8.10;99.90;;;;;;10584240;27;20031;-83
2022/04/21 22:07:31;;;;;;;73.87;41.37;;;8.10;99.90;;;;;;10586307;27;20069;-83
2022/04/21 22:12:35;;;;;;;80.33;44.07;;;8.10;99.90;;;;;;10578218;27;20042;-83
2022/04/21 22:17:36;;;;;;;106.47;54.90;;;8.10;99.90;;;;;;10596909;27;20080;-83
2022/04/21 22:22:37;;;;;;;152.07;74.70;;;8.00;99.90;;;;;;10618230;27;20084;-83
2022/04/21 22:27:37;;;;;;;127.97;64.30;;;7.90;99.90;;;;;;10599646;27;20471;-84
2022/04/21 22:32:49;;;;;;;99.73;54.47;;;7.90;99.90;;;;;;10617784;27;20098;-83
2022/04/21 22:37:50;;;;;;;92.77;49.80;;;7.90;99.90;;;;;;10618596;27;20126;-83
2022/04/21 22:42:51;;;;;;;117.03;59.60;;;7.90;99.90;;;;;;10617248;27;20626;-83
2022/04/21 22:47:53;;;;;;;108.13;54.20;;;7.80;99.90;;;;;;10618109;27;20061;-83
2022/04/21 22:52:54;;;;;;;97.67;53.40;;;7.80;99.90;;;;;;10617126;27;20057;-84
2022/04/21 22:57:54;;;;;;;82.80;44.20;;;7.80;99.90;;;;;;10618054;28;20027;-82
2022/04/21 23:02:55;;;;;;;65.53;36.40;;;7.80;99.90;;;;;;10617406;28;20416;-82
2022/04/21 23:07:56;;;;;;;64.43;34.80;;;7.80;99.90;;;;;;10617057;28;20370;-83
2022/04/21 23:18:16;;;;;;;56.67;30.30;;;7.80;99.90;;;;;;10616811;28;20032;-82
2022/04/21 23:23:17;;;;;;;63.13;34.57;;;7.90;99.90;;;;;;10616847;28;20038;-83
2022/04/21 23:28:19;;;;;;;63.50;35.67;;;7.90;99.90;;;;;;10616636;28;20020;-83
2022/04/21 23:33:20;;;;;;;54.73;31.77;;;7.90;99.90;;;;;;10617083;28;20534;-83
2022/04/21 23:38:30;;;;;;;59.40;33.80;;;7.90;99.90;;;;;;10598066;28;20195;-84
2022/04/21 23:43:30;;;;;;;64.57;36.80;;;7.90;99.90;;;;;;10616455;28;20031;-83
2022/04/21 23:48:31;;;;;;;66.63;35.53;;;7.90;99.90;;;;;;10616898;28;20027;-83
2022/04/21 23:53:32;;;;;;;96.23;51.50;;;7.90;99.90;;;;;;10616556;28;20019;-82
2022/04/21 23:58:32;;;;;;;94.83;49.23;;;7.80;99.90;;;;;;10574097;28;20050;-82
